sensor_id;sensor_type;location;lat;lon;timestamp;pressure;altitude;pressure_sealevel;temperature;humidity
14232;BME280;7200;52.194;9.900;2022-12-10T00:01:46;99780.28;;;0.33;100.00
14232;BME280;7200;52.194;9.900;2022-12-10T00:04:15;99779.44;;;0.28;100.00
14232;BME280;7200;52.194;9.900;2022-12-10T00:06:41;99784.63;;;0.31;100.00
14232;BME280;7200;52.194;9.900;2022-12-10T00:09:10;99781.19;;;0.28;100.00
14232;BME280;7200;52.194;9.900;2022-12-10T00:11:37;99776.00;;;0.26;100.00
14232;BME280;7200;52.194;9.900;2022-12-10T00:14:02;99782.91;;;0.27;100.00
14232;BME280;7200;52.194;9.900;2022-12-10T00:16:28;99782.94;;;0.26;100.00
14232;BME280;7200;52.194;9.900;2022-12-10T00:18:56;99767.41;;;0.16;100.00
14232;BME280;7200;52.194;9.900;2022-12-10T00:21:27;99786.41;;;0.25;100.00
14232;BME280;7200;52.194;9.900;2022-12-10T00:23:53;99787.22;;;0.28;100.00
14232;BME280;7200;52.194;9.900;2022-12-10T00:26:30;99797.59;;;0.34;100.00
14232;BME280;7200;52.194;9.900;2022-12-10T00:28:56;99801.94;;;0.32;100.00
14232;BME280;7200;52.194;9.900;2022-12-10T00:31:27;99789.81;;;0.30;100.00
14232;BME280;7200;52.194;9.900;2022-12-10T00:33:54;99794.16;;;0.29;100.00
14232;BME280;7200;52.194;9.900;2022-12-10T00:36:23;99787.25;;;0.24;100.00
14232;BME280;7200;52.194;9.900;2022-12-10T00:38:49;99795.84;;;0.33;100.00
14232;BME280;7200;52.194;9.900;2022-12-10T00:41:15;99807.06;;;0.40;100.00
14232;BME280;7200;52.194;9.900;2022-12-10T00:43:41;99803.63;;;0.33;100.00
14232;BME280;7200;52.194;9.900;2022-12-10T00:46:06;99802.78;;;0.33;100.00
14232;BME280;7200;52.194;9.900;2022-12-10T00:48:32;99812.28;;;0.34;100.00
14232;BME280;7200;52.194;9.900;2022-12-10T00:51:07;99814.00;;;0.33;100.00
14232;BME280;7200;52.194;9.900;2022-12-10T00:53:34;99819.19;;;0.36;100.00
14232;BME280;7200;52.194;9.900;2022-12-10T00:56:00;99816.63;;;0.33;100.00
14232;BME280;7200;52.194;9.900;2022-12-10T00:58:33;99826.09;;;0.39;100.00
14232;BME280;7200;52.194;9.900;2022-12-10T01:03:36;99813.19;;;0.25;100.00
14232;BME280;7200;52.194;9.900;2022-12-10T01:06:13;99819.25;;;0.26;100.00
14232;BME280;7200;52.194;9.900;2022-12-10T01:08:39;99827.00;;;0.33;100.00
14232;BME280;7200;52.194;9.900;2022-12-10T01:11:05;99827.84;;;0.37;100.00
14232;BME280;7200;52.194;9.900;2022-12-10T01:13:31;99827.88;;;0.32;100.00
14232;BME280;7200;52.194;9.900;2022-12-10T01:15:56;99820.97;;;0.27;100.00
14232;BME280;7200;52.194;9.900;2022-12-10T01:18:21;99814.09;;;0.19;100.00
14232;BME280;7200;52.194;9.900;2022-12-10T01:20:46;99813.25;;;0.14;100.00
14232;BME280;7200;52.194;9.900;2022-12-10T01:23:12;99821.03;;;0.16;100.00
14232;BME280;7200;52.194;9.900;2022-12-10T01:25:37;99821.03;;;0.13;100.00
14232;BME280;7200;52.194;9.900;2022-12-10T01:28:02;99833.13;;;0.15;100.00
14232;BME280;7200;52.194;9.900;2022-12-10T01:30:28;99842.63;;;0.21;100.00
14232;BME280;7200;52.194;9.900;2022-12-10T01:32:53;99838.28;;;0.18;100.00
14232;BME280;7200;52.194;9.900;2022-12-10T01:35:18;99837.44;;;0.19;100.00
14232;BME280;7200;52.194;9.900;2022-12-10T01:37:43;99838.31;;;0.15;100.00
14232;BME280;7200;52.194;9.900;2022-12-10T01:40:09;99842.66;;;0.12;100.00
14232;BME280;7200;52.194;9.900;2022-12-10T01:42:34;99840.06;;;0.09;100.00
14232;BME280;7200;52.194;9.900;2022-12-10T01:45:04;99818.47;;;-0.04;100.00
14232;BME280;7200;52.194;9.900;2022-12-10T01:47:30;99827.13;;;-0.02;100.00
14232;BME280;7200;52.194;9.900;2022-12-10T01:49:57;99821.97;;;-0.13;100.00
14232;BME280;7200;52.194;9.900;2022-12-10T01:52:22;99815.09;;;-0.22;100.00
14232;BME280;7200;52.194;9.900;2022-12-10T01:54:47;99815.09;;;-0.25;100.00
14232;BME280;7200;52.194;9.900;2022-12-10T01:59:39;99809.06;;;-0.33;100.00
14232;BME280;7200;52.194;9.900;2022-12-10T02:10:23;99831.50;;;-0.27;100.00
14232;BME280;7200;52.194;9.900;2022-12-10T02:13:14;99826.31;;;-0.29;100.00
14232;BME280;7200;52.194;9.900;2022-12-10T02:15:50;99820.28;;;-0.26;100.00
14232;BME280;7200;52.194;9.900;2022-12-10T02:18:21;99825.47;;;-0.31;100.00
14232;BME280;7200;52.194;9.900;2022-12-10T02:20:56;99814.25;;;-0.34;100.00
14232;BME280;7200;52.194;9.900;2022-12-10T02:23:46;99824.63;;;-0.28;100.00
14232;BME280;7200;52.194;9.900;2022-12-10T02:26:34;99820.28;;;-0.23;100.00
14232;BME280;7200;52.194;9.900;2022-12-10T02:29:20;99809.91;;;-0.31;100.00
14232;BME280;7200;52.194;9.900;2022-12-10T02:31:49;99809.06;;;-0.31;100.00
14232;BME280;7200;52.194;9.900;2022-12-10T02:34:17;99815.97;;;-0.26;100.00
14232;BME280;7200;52.194;9.900;2022-12-10T02:36:46;99808.19;;;-0.29;100.00
14232;BME280;7200;52.194;9.900;2022-12-10T02:39:17;99809.94;;;-0.35;100.00
14232;BME280;7200;52.194;9.900;2022-12-10T02:41:47;99812.50;;;-0.32;100.00
14232;BME280;7200;52.194;9.900;2022-12-10T02:44:16;99821.16;;;-0.27;100.00
14232;BME280;7200;52.194;9.900;2022-12-10T02:46:45;99816.84;;;-0.31;100.00
14232;BME280;7200;52.194;9.900;2022-12-10T02:49:14;99805.63;;;-0.40;100.00
14232;BME280;7200;52.194;9.900;2022-12-10T02:51:40;99830.63;;;-0.23;100.00
14232;BME280;7200;52.194;9.900;2022-12-10T02:54:36;99821.16;;;-0.29;100.00
14232;BME280;7200;52.194;9.900;2022-12-10T02:57:27;99827.22;;;-0.30;100.00
14232;BME280;7200;52.194;9.900;2022-12-10T03:02:43;99821.16;;;-0.32;100.00
14232;BME280;7200;52.194;9.900;2022-12-10T03:05:20;99804.75;;;-0.42;100.00
14232;BME280;7200;52.194;9.900;2022-12-10T03:08:38;99812.53;;;-0.42;100.00
14232;BME280;7200;52.194;9.900;2022-12-10T03:10:55;99816.00;;;-0.43;100.00
14232;BME280;7200;52.194;9.900;2022-12-10T03:13:24;99819.47;;;-0.45;100.00
14232;BME280;7200;52.194;9.900;2022-12-10T03:15:53;99816.00;;;-0.46;100.00
14232;BME280;7200;52.194;9.900;2022-12-10T03:18:22;99823.75;;;-0.38;100.00
14232;BME280;7200;52.194;9.900;2022-12-10T03:20:51;99818.59;;;-0.43;100.00
14232;BME280;7200;52.194;9.900;2022-12-10T03:23:18;99819.47;;;-0.45;100.00
14232;BME280;7200;52.194;9.900;2022-12-10T03:25:47;99814.28;;;-0.47;100.00
14232;BME280;7200;52.194;9.900;2022-12-10T03:28:13;99800.47;;;-0.53;100.00
14232;BME280;7200;52.194;9.900;2022-12-10T03:30:40;99813.41;;;-0.47;100.00
14232;BME280;7200;52.194;9.900;2022-12-10T03:33:08;99809.09;;;-0.47;100.00
14232;BME280;7200;52.194;9.900;2022-12-10T03:35:34;99812.53;;;-0.48;100.00
14232;BME280;7200;52.194;9.900;2022-12-10T03:38:01;99814.28;;;-0.47;100.00
14232;BME280;7200;52.194;9.900;2022-12-10T03:40:26;99810.81;;;-0.44;100.00
14232;BME280;7200;52.194;9.900;2022-12-10T03:42:51;99812.56;;;-0.43;100.00
14232;BME280;7200;52.194;9.900;2022-12-10T03:45:17;99798.72;;;-0.51;100.00
14232;BME280;7200;52.194;9.900;2022-12-10T03:47:43;99807.38;;;-0.52;100.00
14232;BME280;7200;52.194;9.900;2022-12-10T03:50:09;99806.50;;;-0.45;100.00
14232;BME280;7200;52.194;9.900;2022-12-10T03:52:34;99810.81;;;-0.43;100.00
14232;BME280;7200;52.194;9.900;2022-12-10T03:55:00;99816.00;;;-0.41;100.00
14232;BME280;7200;52.194;9.900;2022-12-10T03:57:26;99821.19;;;-0.40;100.00
14232;BME280;7200;52.194;9.900;2022-12-10T03:59:51;99813.41;;;-0.41;100.00
14232;BME280;7200;52.194;9.900;2022-12-10T04:02:17;99813.41;;;-0.43;100.00
14232;BME280;7200;52.194;9.900;2022-12-10T04:04:42;99817.75;;;-0.43;100.00
14232;BME280;7200;52.194;9.900;2022-12-10T04:07:07;99819.47;;;-0.50;100.00
14232;BME280;7200;52.194;9.900;2022-12-10T04:09:33;99819.47;;;-0.48;100.00
14232;BME280;7200;52.194;9.900;2022-12-10T04:11:59;99825.50;;;-0.48;100.00
14232;BME280;7200;52.194;9.900;2022-12-10T04:14:25;99818.59;;;-0.50;100.00
14232;BME280;7200;52.194;9.900;2022-12-10T04:17:10;99823.78;;;-0.50;100.00
14232;BME280;7200;52.194;9.900;2022-12-10T04:19:35;99836.72;;;-0.47;100.00
14232;BME280;7200;52.194;9.900;2022-12-10T04:22:01;99840.19;;;-0.37;100.00
14232;BME280;7200;52.194;9.900;2022-12-10T04:24:45;99845.34;;;-0.34;100.00
14232;BME280;7200;52.194;9.900;2022-12-10T04:27:39;99836.72;;;-0.41;100.00
14232;BME280;7200;52.194;9.900;2022-12-10T04:30:07;99828.09;;;-0.45;100.00
14232;BME280;7200;52.194;9.900;2022-12-10T04:32:33;99820.31;;;-0.55;100.00
14232;BME280;7200;52.194;9.900;2022-12-10T04:34:59;99818.63;;;-0.58;100.00
14232;BME280;7200;52.194;9.900;2022-12-10T04:37:26;99816.91;;;-0.64;100.00
14232;BME280;7200;52.194;9.900;2022-12-10T04:39:52;99828.97;;;-0.61;100.00
14232;BME280;7200;52.194;9.900;2022-12-10T04:42:18;99824.66;;;-0.68;100.00
14232;BME280;7200;52.194;9.900;2022-12-10T04:44:44;99822.94;;;-0.68;100.00
14232;BME280;7200;52.194;9.900;2022-12-10T04:47:10;99820.34;;;-0.69;100.00
14232;BME280;7200;52.194;9.900;2022-12-10T04:49:36;99823.78;;;-0.64;100.00
14232;BME280;7200;52.194;9.900;2022-12-10T04:52:02;99825.53;;;-0.69;100.00
14232;BME280;7200;52.194;9.900;2022-12-10T04:54:27;99818.63;;;-0.75;100.00
14232;BME280;7200;52.194;9.900;2022-12-10T04:56:53;99825.53;;;-0.72;100.00
14232;BME280;7200;52.194;9.900;2022-12-10T04:59:18;99831.56;;;-0.70;100.00
14232;BME280;7200;52.194;9.900;2022-12-10T05:01:44;99835.03;;;-0.71;100.00
14232;BME280;7200;52.194;9.900;2022-12-10T05:04:12;99837.59;;;-0.70;100.00
14232;BME280;7200;52.194;9.900;2022-12-10T05:06:38;99860.94;;;-0.56;100.00
14232;BME280;7200;52.194;9.900;2022-12-10T05:09:04;99850.56;;;-0.61;100.00
14232;BME280;7200;52.194;9.900;2022-12-10T05:11:30;99843.66;;;-0.66;100.00
14232;BME280;7200;52.194;9.900;2022-12-10T05:13:56;99837.59;;;-0.70;100.00
14232;BME280;7200;52.194;9.900;2022-12-10T05:16:23;99839.31;;;-0.72;100.00
14232;BME280;7200;52.194;9.900;2022-12-10T05:18:49;99846.25;;;-0.68;100.00
14232;BME280;7200;52.194;9.900;2022-12-10T05:21:17;99851.44;;;-0.69;100.00
14232;BME280;7200;52.194;9.900;2022-12-10T05:23:46;99852.28;;;-0.69;100.00
14232;BME280;7200;52.194;9.900;2022-12-10T05:26:20;99853.16;;;-0.73;100.00
14232;BME280;7200;52.194;9.900;2022-12-10T05:28:51;99829.84;;;-0.76;100.00
14232;BME280;7200;52.194;9.900;2022-12-10T05:31:21;99840.22;;;-0.79;100.00
14232;BME280;7200;52.194;9.900;2022-12-10T05:33:46;99835.91;;;-0.85;100.00
14232;BME280;7200;52.194;9.900;2022-12-10T05:36:14;99842.81;;;-0.81;100.00
14232;BME280;7200;52.194;9.900;2022-12-10T05:38:41;99841.91;;;-0.81;100.00
14232;BME280;7200;52.194;9.900;2022-12-10T05:41:28;99849.69;;;-0.78;100.00
14232;BME280;7200;52.194;9.900;2022-12-10T05:43:54;99862.66;;;-0.78;100.00
14232;BME280;7200;52.194;9.900;2022-12-10T05:46:22;99860.94;;;-0.79;100.00
14232;BME280;7200;52.194;9.900;2022-12-10T05:48:49;99872.16;;;-0.77;100.00
14232;BME280;7200;52.194;9.900;2022-12-10T05:51:17;99875.63;;;-0.73;100.00
14232;BME280;7200;52.194;9.900;2022-12-10T05:53:43;99873.88;;;-0.71;100.00
14232;BME280;7200;52.194;9.900;2022-12-10T05:56:11;99868.69;;;-0.77;100.00
14232;BME280;7200;52.194;9.900;2022-12-10T05:58:38;99866.13;;;-0.81;100.00
14232;BME280;7200;52.194;9.900;2022-12-10T06:01:16;99866.09;;;-0.90;100.00
14232;BME280;7200;52.194;9.900;2022-12-10T06:03:42;99858.31;;;-0.94;100.00
14232;BME280;7200;52.194;9.900;2022-12-10T06:06:08;99863.50;;;-0.93;100.00
14232;BME280;7200;52.194;9.900;2022-12-10T06:08:34;99879.03;;;-0.93;100.00
14232;BME280;7200;52.194;9.900;2022-12-10T06:11:10;99872.13;;;-0.91;100.00
14232;BME280;7200;52.194;9.900;2022-12-10T06:13:38;99878.19;;;-0.86;100.00
14232;BME280;7200;52.194;9.900;2022-12-10T06:16:08;99886.81;;;-0.90;100.00
14232;BME280;7200;52.194;9.900;2022-12-10T06:18:34;99884.22;;;-0.91;100.00
14232;BME280;7200;52.194;9.900;2022-12-10T06:21:03;99892.88;;;-0.86;100.00
14232;BME280;7200;52.194;9.900;2022-12-10T06:23:29;99891.13;;;-0.86;100.00
14232;BME280;7200;52.194;9.900;2022-12-10T06:25:54;99894.56;;;-0.85;100.00
14232;BME280;7200;52.194;9.900;2022-12-10T06:28:20;99899.75;;;-0.84;100.00
14232;BME280;7200;52.194;9.900;2022-12-10T06:30:45;99904.06;;;-0.81;100.00
14232;BME280;7200;52.194;9.900;2022-12-10T06:33:10;99912.75;;;-0.79;100.00
14232;BME280;7200;52.194;9.900;2022-12-10T06:35:37;99904.09;;;-0.84;100.00
14232;BME280;7200;52.194;9.900;2022-12-10T06:38:02;99904.09;;;-0.84;100.00
14232;BME280;7200;52.194;9.900;2022-12-10T06:40:28;99901.50;;;-0.86;100.00
14232;BME280;7200;52.194;9.900;2022-12-10T06:42:53;99917.91;;;-0.82;100.00
14232;BME280;7200;52.194;9.900;2022-12-10T06:45:18;99914.44;;;-0.84;100.00
14232;BME280;7200;52.194;9.900;2022-12-10T06:47:43;99916.19;;;-0.85;100.00
14232;BME280;7200;52.194;9.900;2022-12-10T06:50:09;99929.09;;;-0.83;100.00
14232;BME280;7200;52.194;9.900;2022-12-10T06:52:34;99921.34;;;-0.85;100.00
14232;BME280;7200;52.194;9.900;2022-12-10T06:54:59;99926.53;;;-0.86;100.00
14232;BME280;7200;52.194;9.900;2022-12-10T06:57:25;99919.63;;;-0.92;100.00
14232;BME280;7200;52.194;9.900;2022-12-10T06:59:50;99919.59;;;-0.93;100.00
14232;BME280;7200;52.194;9.900;2022-12-10T07:02:15;99925.63;;;-0.93;100.00
14232;BME280;7200;52.194;9.900;2022-12-10T07:04:41;99923.06;;;-0.93;100.00
14232;BME280;7200;52.194;9.900;2022-12-10T07:07:06;99920.47;;;-0.91;100.00
14232;BME280;7200;52.194;9.900;2022-12-10T07:09:32;99928.25;;;-0.91;100.00
14232;BME280;7200;52.194;9.900;2022-12-10T07:11:57;99927.38;;;-0.93;100.00
14232;BME280;7200;52.194;9.900;2022-12-10T07:14:23;99927.34;;;-0.96;100.00
14232;BME280;7200;52.194;9.900;2022-12-10T07:16:48;99938.63;;;-0.88;100.00
14232;BME280;7200;52.194;9.900;2022-12-10T07:19:13;99942.03;;;-0.91;100.00
14232;BME280;7200;52.194;9.900;2022-12-10T07:21:40;99933.41;;;-0.94;100.00
14232;BME280;7200;52.194;9.900;2022-12-10T07:24:10;99940.31;;;-0.93;100.00
14232;BME280;7200;52.194;9.900;2022-12-10T07:26:38;99951.53;;;-0.91;100.00
14232;BME280;7200;52.194;9.900;2022-12-10T07:29:05;99955.03;;;-0.85;100.00
14232;BME280;7200;52.194;9.900;2022-12-10T07:31:33;99939.44;;;-0.92;100.00
14232;BME280;7200;52.194;9.900;2022-12-10T07:33:59;99950.69;;;-0.90;100.00
14232;BME280;7200;52.194;9.900;2022-12-10T07:36:25;99954.13;;;-0.87;100.00
14232;BME280;7200;52.194;9.900;2022-12-10T07:38:52;99971.44;;;-0.78;100.00
14232;BME280;7200;52.194;9.900;2022-12-10T07:41:18;99967.09;;;-0.82;100.00
14232;BME280;7200;52.194;9.900;2022-12-10T07:43:44;99969.69;;;-0.82;100.00
14232;BME280;7200;52.194;9.900;2022-12-10T07:46:12;99967.97;;;-0.86;100.00
14232;BME280;7200;52.194;9.900;2022-12-10T07:48:39;99972.28;;;-0.88;100.00
14232;BME280;7200;52.194;9.900;2022-12-10T07:51:05;99973.13;;;-0.89;100.00
14232;BME280;7200;52.194;9.900;2022-12-10T07:53:31;99980.06;;;-0.82;100.00
14232;BME280;7200;52.194;9.900;2022-12-10T07:55:56;99976.63;;;-0.83;100.00
14232;BME280;7200;52.194;9.900;2022-12-10T07:58:22;99985.25;;;-0.79;100.00
14232;BME280;7200;52.194;9.900;2022-12-10T08:00:47;99976.59;;;-0.81;100.00
14232;BME280;7200;52.194;9.900;2022-12-10T08:03:12;99980.03;;;-0.85;100.00
14232;BME280;7200;52.194;9.900;2022-12-10T08:05:38;99982.63;;;-0.84;100.00
14232;BME280;7200;52.194;9.900;2022-12-10T08:08:03;99977.44;;;-0.87;100.00
14232;BME280;7200;52.194;9.900;2022-12-10T08:10:28;99967.94;;;-0.91;100.00
14232;BME280;7200;52.194;9.900;2022-12-10T08:12:54;99981.75;;;-0.89;100.00
14232;BME280;7200;52.194;9.900;2022-12-10T08:15:19;99982.63;;;-0.87;100.00
14232;BME280;7200;52.194;9.900;2022-12-10T08:17:44;99976.56;;;-0.95;100.00
14232;BME280;7200;52.194;9.900;2022-12-10T08:20:10;99978.28;;;-0.97;100.00
14232;BME280;7200;52.194;9.900;2022-12-10T08:22:35;99980.03;;;-0.90;100.00
14232;BME280;7200;52.194;9.900;2022-12-10T08:25:01;99993.88;;;-0.85;100.00
14232;BME280;7200;52.194;9.900;2022-12-10T08:27:27;99993.88;;;-0.80;100.00
14232;BME280;7200;52.194;9.900;2022-12-10T08:29:52;99983.47;;;-0.91;100.00
14232;BME280;7200;52.194;9.900;2022-12-10T08:32:18;99997.31;;;-0.86;100.00
14232;BME280;7200;52.194;9.900;2022-12-10T08:34:43;100015.47;;;-0.75;100.00
14232;BME280;7200;52.194;9.900;2022-12-10T08:37:09;100012.03;;;-0.71;100.00
14232;BME280;7200;52.194;9.900;2022-12-10T08:39:34;100015.50;;;-0.73;100.00
14232;BME280;7200;52.194;9.900;2022-12-10T08:41:59;100013.75;;;-0.74;100.00
14232;BME280;7200;52.194;9.900;2022-12-10T08:44:25;100016.31;;;-0.76;100.00
14232;BME280;7200;52.194;9.900;2022-12-10T08:46:50;100011.16;;;-0.79;100.00
14232;BME280;7200;52.194;9.900;2022-12-10T08:49:15;100012.03;;;-0.77;100.00
14232;BME280;7200;52.194;9.900;2022-12-10T08:51:41;100004.25;;;-0.79;100.00
14232;BME280;7200;52.194;9.900;2022-12-10T08:54:06;100012.91;;;-0.73;100.00
14232;BME280;7200;52.194;9.900;2022-12-10T08:56:31;100014.59;;;-0.75;100.00
14232;BME280;7200;52.194;9.900;2022-12-10T08:58:57;100006.81;;;-0.80;100.00
14232;BME280;7200;52.194;9.900;2022-12-10T09:01:22;100020.69;;;-0.67;100.00
14232;BME280;7200;52.194;9.900;2022-12-10T09:03:47;100030.19;;;-0.59;100.00
14232;BME280;7200;52.194;9.900;2022-12-10T09:06:15;100033.66;;;-0.56;100.00
14232;BME280;7200;52.194;9.900;2022-12-10T09:08:41;100018.94;;;-0.67;100.00
14232;BME280;7200;52.194;9.900;2022-12-10T09:11:09;100026.72;;;-0.59;100.00
14232;BME280;7200;52.194;9.900;2022-12-10T09:13:34;100023.25;;;-0.63;100.00
14232;BME280;7200;52.194;9.900;2022-12-10T09:16:00;100024.16;;;-0.64;100.00
14232;BME280;7200;52.194;9.900;2022-12-10T09:18:25;100035.38;;;-0.57;100.00
14232;BME280;7200;52.194;9.900;2022-12-10T09:20:50;100037.97;;;-0.54;100.00
14232;BME280;7200;52.194;9.900;2022-12-10T09:23:16;100026.75;;;-0.62;100.00
14232;BME280;7200;52.194;9.900;2022-12-10T09:25:41;100023.28;;;-0.67;100.00
14232;BME280;7200;52.194;9.900;2022-12-10T09:28:06;100027.59;;;-0.65;100.00
14232;BME280;7200;52.194;9.900;2022-12-10T09:30:32;100048.34;;;-0.54;100.00
14232;BME280;7200;52.194;9.900;2022-12-10T09:32:57;100055.28;;;-0.41;100.00
14232;BME280;7200;52.194;9.900;2022-12-10T09:35:23;100060.50;;;-0.37;100.00
14232;BME280;7200;52.194;9.900;2022-12-10T09:37:48;100045.78;;;-0.46;100.00
14232;BME280;7200;52.194;9.900;2022-12-10T09:40:18;100045.78;;;-0.51;100.00
14232;BME280;7200;52.194;9.900;2022-12-10T09:43:01;100028.47;;;-0.58;100.00
14232;BME280;7200;52.194;9.900;2022-12-10T09:51:00;100039.72;;;-0.50;100.00
14232;BME280;7200;52.194;9.900;2022-12-10T09:53:28;100047.50;;;-0.47;100.00
14232;BME280;7200;52.194;9.900;2022-12-10T09:55:54;100050.97;;;-0.40;100.00
14232;BME280;7200;52.194;9.900;2022-12-10T09:58:23;100057.03;;;-0.40;100.00
14232;BME280;7200;52.194;9.900;2022-12-10T10:00:56;100044.91;;;-0.47;100.00
14232;BME280;7200;52.194;9.900;2022-12-10T10:03:22;100044.03;;;-0.44;100.00
14232;BME280;7200;52.194;9.900;2022-12-10T10:05:53;100043.16;;;-0.42;100.00
14232;BME280;7200;52.194;9.900;2022-12-10T10:08:24;100053.56;;;-0.35;100.00
14232;BME280;7200;52.194;9.900;2022-12-10T10:10:51;100047.50;;;-0.36;100.00
14232;BME280;7200;52.194;9.900;2022-12-10T10:16:16;100057.03;;;-0.30;100.00
14232;BME280;7200;52.194;9.900;2022-12-10T10:18:48;100056.16;;;-0.29;100.00
14232;BME280;7200;52.194;9.900;2022-12-10T10:21:20;100046.66;;;-0.36;100.00
14232;BME280;7200;52.194;9.900;2022-12-10T10:23:46;100044.03;;;-0.38;100.00
14232;BME280;7200;52.194;9.900;2022-12-10T10:26:12;100049.25;;;-0.32;100.00
14232;BME280;7200;52.194;9.900;2022-12-10T10:28:40;100056.19;;;-0.28;100.00
14232;BME280;7200;52.194;9.900;2022-12-10T10:31:18;100055.31;;;-0.31;100.00
14232;BME280;7200;52.194;9.900;2022-12-10T10:33:55;100043.19;;;-0.38;100.00
14232;BME280;7200;52.194;9.900;2022-12-10T10:36:33;100049.25;;;-0.33;100.00
14232;BME280;7200;52.194;9.900;2022-12-10T10:39:26;100028.47;;;-0.47;100.00
14232;BME280;7200;52.194;9.900;2022-12-10T10:41:54;100021.56;;;-0.53;100.00
14232;BME280;7200;52.194;9.900;2022-12-10T10:44:22;100028.50;;;-0.50;100.00
14232;BME280;7200;52.194;9.900;2022-12-10T10:46:51;100031.97;;;-0.47;100.00
14232;BME280;7200;52.194;9.900;2022-12-10T10:49:29;100026.75;;;-0.53;100.00
14232;BME280;7200;52.194;9.900;2022-12-10T10:52:14;100031.94;;;-0.50;100.00
14232;BME280;7200;52.194;9.900;2022-12-10T10:54:42;100025.03;;;-0.51;100.00
14232;BME280;7200;52.194;9.900;2022-12-10T10:57:21;100037.13;;;-0.47;100.00
14232;BME280;7200;52.194;9.900;2022-12-10T10:59:49;100027.63;;;-0.49;100.00
14232;BME280;7200;52.194;9.900;2022-12-10T11:02:20;100038.88;;;-0.40;100.00
14232;BME280;7200;52.194;9.900;2022-12-10T11:04:51;100033.69;;;-0.41;100.00
14232;BME280;7200;52.194;9.900;2022-12-10T11:07:34;100038.00;;;-0.40;100.00
14232;BME280;7200;52.194;9.900;2022-12-10T11:10:01;100028.50;;;-0.35;100.00
14232;BME280;7200;52.194;9.900;2022-12-10T11:12:37;100036.31;;;-0.32;100.00
14232;BME280;7200;52.194;9.900;2022-12-10T11:17:53;100048.41;;;-0.23;100.00
14232;BME280;7200;52.194;9.900;2022-12-10T11:20:22;100026.81;;;-0.30;100.00
14232;BME280;7200;52.194;9.900;2022-12-10T11:23:00;100025.06;;;-0.29;100.00
14232;BME280;7200;52.194;9.900;2022-12-10T11:25:42;100035.44;;;-0.23;100.00
14232;BME280;7200;52.194;9.900;2022-12-10T11:30:50;100023.34;;;-0.27;100.00
14232;BME280;7200;52.194;9.900;2022-12-10T11:36:41;100025.06;;;-0.29;100.00
14232;BME280;7200;52.194;9.900;2022-12-10T11:42:05;100013.81;;;-0.33;100.00
14232;BME280;7200;52.194;9.900;2022-12-10T11:45:00;100019.00;;;-0.31;100.00
14232;BME280;7200;52.194;9.900;2022-12-10T11:47:44;100021.59;;;-0.33;100.00
14232;BME280;7200;52.194;9.900;2022-12-10T11:50:35;100021.59;;;-0.31;100.00
14232;BME280;7200;52.194;9.900;2022-12-10T11:58:48;100021.63;;;-0.30;100.00
14232;BME280;7200;52.194;9.900;2022-12-10T12:01:44;100019.00;;;-0.33;100.00
14232;BME280;7200;52.194;9.900;2022-12-10T12:06:53;100006.91;;;-0.38;100.00
14232;BME280;7200;52.194;9.900;2022-12-10T12:09:33;100020.72;;;-0.30;100.00
14232;BME280;7200;52.194;9.900;2022-12-10T12:17:43;100019.88;;;-0.20;100.00
14232;BME280;7200;52.194;9.900;2022-12-10T12:20:24;100010.38;;;-0.29;100.00
14232;BME280;7200;52.194;9.900;2022-12-10T12:23:01;99996.56;;;-0.35;100.00
14232;BME280;7200;52.194;9.900;2022-12-10T12:25:34;99999.13;;;-0.40;100.00
14232;BME280;7200;52.194;9.900;2022-12-10T12:30:46;100010.38;;;-0.32;100.00
14232;BME280;7200;52.194;9.900;2022-12-10T12:36:14;100000.88;;;-0.30;100.00
14232;BME280;7200;52.194;9.900;2022-12-10T12:41:54;99986.19;;;-0.34;100.00
14232;BME280;7200;52.194;9.900;2022-12-10T12:47:00;99977.53;;;-0.41;100.00
14232;BME280;7200;52.194;9.900;2022-12-10T12:49:32;99965.44;;;-0.46;100.00
14232;BME280;7200;52.194;9.900;2022-12-10T12:52:03;99956.81;;;-0.54;100.00
14232;BME280;7200;52.194;9.900;2022-12-10T12:54:31;99971.47;;;-0.55;100.00
14232;BME280;7200;52.194;9.900;2022-12-10T12:59:30;99968.88;;;-0.50;100.00
14232;BME280;7200;52.194;9.900;2022-12-10T13:02:02;99986.19;;;-0.34;100.00
14232;BME280;7200;52.194;9.900;2022-12-10T13:04:34;99974.94;;;-0.36;100.00
14232;BME280;7200;52.194;9.900;2022-12-10T13:10:42;99985.31;;;-0.33;100.00
14232;BME280;7200;52.194;9.900;2022-12-10T13:12:49;99973.22;;;-0.38;100.00
14232;BME280;7200;52.194;9.900;2022-12-10T13:23:50;99977.53;;;-0.33;100.00
14232;BME280;7200;52.194;9.900;2022-12-10T13:26:35;99969.75;;;-0.36;100.00
14232;BME280;7200;52.194;9.900;2022-12-10T13:29:24;99964.56;;;-0.48;100.00
14232;BME280;7200;52.194;9.900;2022-12-10T13:31:55;99955.06;;;-0.55;100.00
14232;BME280;7200;52.194;9.900;2022-12-10T13:34:32;99940.38;;;-0.58;100.00
14232;BME280;7200;52.194;9.900;2022-12-10T13:58:00;99981.00;;;-0.09;100.00
14232;BME280;7200;52.194;9.900;2022-12-10T14:06:20;99975.81;;;-0.11;100.00
14232;BME280;7200;52.194;9.900;2022-12-10T14:09:10;99974.94;;;-0.10;100.00
14232;BME280;7200;52.194;9.900;2022-12-10T14:11:56;99977.53;;;-0.07;100.00
14232;BME280;7200;52.194;9.900;2022-12-10T14:14:30;99984.47;;;-0.06;100.00
14232;BME280;7200;52.194;9.900;2022-12-10T14:17:00;99987.03;;;-0.03;100.00
14232;BME280;7200;52.194;9.900;2022-12-10T14:19:27;99995.69;;;-0.01;100.00
14232;BME280;7200;52.194;9.900;2022-12-10T14:21:53;99993.97;;;0.05;100.00
14232;BME280;7200;52.194;9.900;2022-12-10T14:24:38;99987.91;;;0.01;100.00
14232;BME280;7200;52.194;9.900;2022-12-10T14:27:15;99968.91;;;-0.10;100.00
14232;BME280;7200;52.194;9.900;2022-12-10T14:29:50;99963.72;;;-0.12;100.00
14232;BME280;7200;52.194;9.900;2022-12-10T14:32:19;99968.03;;;-0.08;100.00
14232;BME280;7200;52.194;9.900;2022-12-10T14:34:50;99958.53;;;-0.06;100.00
14232;BME280;7200;52.194;9.900;2022-12-10T14:37:19;99979.28;;;0.01;100.00
14232;BME280;7200;52.194;9.900;2022-12-10T14:39:47;99963.72;;;-0.06;100.00
14232;BME280;7200;52.194;9.900;2022-12-10T14:42:15;99961.13;;;-0.07;100.00
14232;BME280;7200;52.194;9.900;2022-12-10T14:44:41;99955.09;;;-0.17;100.00
14232;BME280;7200;52.194;9.900;2022-12-10T14:47:19;99956.81;;;-0.24;100.00
14232;BME280;7200;52.194;9.900;2022-12-10T14:49:47;99963.72;;;-0.20;100.00
14232;BME280;7200;52.194;9.900;2022-12-10T14:52:18;99961.13;;;-0.23;100.00
14232;BME280;7200;52.194;9.900;2022-12-10T14:54:45;99979.28;;;-0.07;100.00